createdAt,value
2019-01-02T00:01:42.114Z,6.44
2019-01-02T00:04:11.625Z,6.44
2019-01-02T00:06:40.877Z,6.39
2019-01-02T00:09:30.916Z,6.17
2019-01-02T00:12:40.285Z,6.22
2019-01-02T00:15:30.304Z,6.35
2019-01-02T00:17:59.558Z,6.49
2019-01-02T00:20:48.133Z,6.16
2019-01-02T00:23:38.174Z,6.41
2019-01-02T00:26:07.400Z,6.13
2019-01-02T00:31:49.701Z,6.05
2019-01-02T00:34:39.748Z,6.30
2019-01-02T00:37:08.973Z,6.69
2019-01-02T00:40:18.488Z,6.52
2019-01-02T00:43:08.527Z,6.25
2019-01-02T00:45:37.780Z,6.19
2019-01-02T00:48:19.684Z,6.49
2019-01-02T00:51:01.221Z,6.37
2019-01-02T00:53:30.464Z,6.40
2019-01-02T00:56:20.508Z,6.52
2019-01-02T00:59:10.568Z,6.18
2019-01-02T01:01:39.830Z,6.51
2019-01-02T01:04:29.861Z,6.23
2019-01-02T01:07:18.471Z,6.30
2019-01-02T01:09:47.726Z,6.31
2019-01-02T01:12:57.130Z,6.55
2019-01-02T01:15:26.378Z,6.28
2019-01-02T01:18:14.956Z,6.23
2019-01-02T01:21:04.990Z,6.28
2019-01-02T01:23:53.581Z,6.40
2019-01-02T01:26:42.163Z,6.26
2019-01-02T01:29:11.404Z,6.34
2019-01-02T01:32:01.434Z,6.47
2019-01-02T01:34:30.683Z,6.53
2019-01-02T01:37:19.294Z,6.82
2019-01-02T01:39:48.531Z,6.36
2019-01-02T01:42:38.569Z,6.23
2019-01-02T01:45:47.826Z,6.26
2019-01-02T01:48:17.086Z,6.29
2019-01-02T01:50:58.260Z,6.20
2019-01-02T01:53:27.507Z,6.28
2019-01-02T01:55:56.773Z,6.42
2019-01-02T02:01:19.810Z,6.20
2019-01-02T02:04:09.861Z,6.19
2019-01-02T02:06:39.102Z,6.04
2019-01-02T02:09:27.793Z,6.43
2019-01-02T02:11:57.020Z,6.87
2019-01-02T02:14:26.266Z,6.61
2019-01-02T02:17:14.857Z,6.28
2019-01-02T02:19:44.114Z,6.15
2019-01-02T02:22:34.170Z,6.22
2019-01-02T02:28:18.232Z,6.27
2019-01-02T02:30:47.480Z,6.50
2019-01-02T02:33:37.522Z,6.16
2019-01-02T02:36:27.572Z,6.54
2019-01-02T02:39:17.614Z,6.15
2019-01-02T02:42:07.674Z,6.23
2019-01-02T02:44:37.115Z,6.31
2019-01-02T02:47:06.365Z,6.18
2019-01-02T02:49:35.602Z,6.68
2019-01-02T02:52:24.215Z,6.46
2019-01-02T02:54:53.481Z,6.21
2019-01-02T02:57:22.728Z,6.31
2019-01-02T02:59:51.964Z,6.34
2019-01-02T03:02:21.238Z,6.41
2019-01-02T03:04:50.450Z,6.02
2019-01-02T03:07:40.504Z,6.51
2019-01-02T03:10:30.539Z,6.31
2019-01-02T03:13:20.644Z,6.40
2019-01-02T03:16:10.669Z,6.16
2019-01-02T03:19:00.715Z,6.20
2019-01-02T03:22:10.094Z,6.17
2019-01-02T03:25:00.223Z,6.42
2019-01-02T03:27:50.146Z,6.26
2019-01-02T03:30:40.202Z,6.40
2019-01-02T03:33:49.760Z,6.38
2019-01-02T03:36:18.991Z,6.53
2019-01-02T03:38:48.219Z,6.14
2019-01-02T03:41:17.468Z,6.27
2019-01-02T03:43:46.759Z,6.00
2019-01-02T03:46:35.386Z,6.26
2019-01-02T03:49:23.974Z,6.26
2019-01-02T03:51:53.233Z,6.13
2019-01-02T03:54:22.544Z,6.39
2019-01-02T03:56:51.867Z,6.31
2019-01-02T03:59:21.120Z,6.44
2019-01-02T04:01:50.366Z,6.54
2019-01-02T04:04:19.600Z,6.84
2019-01-02T04:07:08.250Z,6.94
2019-01-02T04:09:37.490Z,6.95
2019-01-02T04:12:26.175Z,6.92
2019-01-02T04:15:14.754Z,6.41
2019-01-02T04:17:44.023Z,6.59
2019-01-02T04:20:13.280Z,6.66
2019-01-02T04:22:42.526Z,6.55
2019-01-02T04:25:31.105Z,6.41
2019-01-02T04:28:00.375Z,6.34
2019-01-02T04:30:48.939Z,6.35
2019-01-02T04:33:18.201Z,6.31
2019-01-02T04:36:06.769Z,6.23
2019-01-02T04:38:36.009Z,6.35
2019-01-02T04:41:05.243Z,6.40
2019-01-02T04:43:34.498Z,6.23
2019-01-02T04:46:03.733Z,6.32
2019-01-02T04:48:32.958Z,6.12
2019-01-02T04:51:02.199Z,6.53
2019-01-02T04:53:50.846Z,6.57
2019-01-02T04:56:20.091Z,6.59
2019-01-02T04:59:08.690Z,6.55
2019-01-02T05:01:37.924Z,6.57
2019-01-02T05:04:07.168Z,6.49
2019-01-02T05:06:55.792Z,6.60
2019-01-02T05:09:25.027Z,6.39
2019-01-02T05:12:13.633Z,6.58
2019-01-02T05:15:02.229Z,6.40
2019-01-02T05:17:50.817Z,6.45
2019-01-02T05:20:20.078Z,6.29
2019-01-02T05:22:49.326Z,6.31
2019-01-02T05:25:18.570Z,6.50
2019-01-02T05:27:47.821Z,6.70
2019-01-02T05:30:57.136Z,6.44
2019-01-02T05:33:26.382Z,6.19
2019-01-02T05:36:14.971Z,6.52
2019-01-02T05:42:12.610Z,6.53
2019-01-02T05:44:41.864Z,6.24
2019-01-02T05:50:36.078Z,6.17
2019-01-02T05:53:05.383Z,6.24
2019-01-02T05:55:54.015Z,6.37
2019-01-02T05:58:42.598Z,6.35
2019-01-02T06:01:11.855Z,6.28
2019-01-02T06:04:00.467Z,6.25
2019-01-02T06:06:29.704Z,6.36
2019-01-02T06:09:18.299Z,6.22
2019-01-02T06:11:47.560Z,6.33
2019-01-02T06:14:36.137Z,6.19
2019-01-02T06:17:24.720Z,6.07
2019-01-02T06:20:14.181Z,6.20
2019-01-02T06:22:43.482Z,6.32
2019-01-02T06:25:12.715Z,6.36
2019-01-02T06:27:41.954Z,6.12
2019-01-02T06:30:30.542Z,6.16
2019-01-02T06:32:59.789Z,6.27
2019-01-02T06:35:48.348Z,6.30
2019-01-02T06:41:50.671Z,6.24
2019-01-02T06:44:19.911Z,6.59
2019-01-02T06:47:08.500Z,6.29
2019-01-02T06:52:50.910Z,6.30
2019-01-02T06:55:39.515Z,6.63
2019-01-02T06:58:28.087Z,6.58
2019-01-02T07:00:57.345Z,6.32
2019-01-02T07:03:45.931Z,6.32
2019-01-02T07:06:34.561Z,6.62
2019-01-02T07:09:23.150Z,6.31
2019-01-02T07:11:52.411Z,6.10
2019-01-02T07:14:40.999Z,6.30
2019-01-02T07:17:10.312Z,6.21
2019-01-02T07:19:58.888Z,6.32
2019-01-02T07:22:47.478Z,6.63
2019-01-02T07:25:16.715Z,6.47
2019-01-02T07:27:45.981Z,6.59
2019-01-02T07:30:55.418Z,6.53
2019-01-02T07:34:28.361Z,6.26
2019-01-02T07:37:36.319Z,6.50
2019-01-02T07:40:44.294Z,6.43
2019-01-02T07:43:50.960Z,6.67
2019-01-02T07:49:48.075Z,6.38
2019-01-02T07:52:57.350Z,6.42
2019-01-02T07:56:05.289Z,6.42
2019-01-02T08:02:44.309Z,6.31
2019-01-02T08:05:52.266Z,6.31
2019-01-02T08:09:00.214Z,6.75
2019-01-02T08:12:09.494Z,6.35
2019-01-02T08:15:17.454Z,6.25
2019-01-02T08:18:25.402Z,6.17
2019-01-02T08:21:33.357Z,6.25
2019-01-02T08:24:42.699Z,6.34
2019-01-02T08:27:50.658Z,6.37
2019-01-02T08:30:58.611Z,6.68
2019-01-02T08:34:07.871Z,6.50
2019-01-02T08:37:17.201Z,6.34
2019-01-02T08:40:25.148Z,6.51
2019-01-02T08:43:33.116Z,7.25
2019-01-02T08:46:42.385Z,6.65
2019-01-02T08:49:51.739Z,6.47
2019-01-02T08:52:32.997Z,6.82
2019-01-02T08:55:42.266Z,6.32
2019-01-02T08:58:50.220Z,6.45
2019-01-02T09:01:58.182Z,6.33
2019-01-02T09:05:06.168Z,6.72
2019-01-02T09:08:15.517Z,6.59
2019-01-02T09:11:24.881Z,6.79
2019-01-02T09:14:32.831Z,6.42
2019-01-02T09:17:40.795Z,6.51
2019-01-02T09:20:50.102Z,6.49
2019-01-02T09:23:59.423Z,6.62
2019-01-02T09:27:07.387Z,6.75
2019-01-02T09:30:16.719Z,6.76
2019-01-02T09:33:24.684Z,6.76
2019-01-02T09:36:32.640Z,6.68
2019-01-02T09:42:31.151Z,6.76
2019-01-02T09:45:39.043Z,6.72
2019-01-02T09:48:46.994Z,6.56
2019-01-02T09:51:28.150Z,6.38
2019-01-02T09:54:09.595Z,6.61
2019-01-02T09:56:51.054Z,6.58
2019-01-02T09:59:59.069Z,6.73
2019-01-02T10:02:48.040Z,6.76
2019-01-02T10:05:55.977Z,6.73
2019-01-02T10:09:03.963Z,6.60
2019-01-02T10:12:11.915Z,6.73
2019-01-02T10:15:19.871Z,7.18
2019-01-02T10:18:27.811Z,7.15
2019-01-02T10:21:37.184Z,7.08
2019-01-02T10:24:46.523Z,7.00
2019-01-02T10:30:45.720Z,7.43
2019-01-02T10:33:35.873Z,7.69
2019-01-02T10:36:45.213Z,7.71
2019-01-02T10:39:53.162Z,7.50
2019-01-02T10:43:01.146Z,7.22
2019-01-02T10:46:09.127Z,7.44
2019-01-02T10:49:17.086Z,7.42
2019-01-02T10:52:25.097Z,7.28
2019-01-02T10:55:34.355Z,6.91
2019-01-02T10:58:42.320Z,7.21
2019-01-02T11:01:50.297Z,7.81
2019-01-02T11:04:58.238Z,7.17
2019-01-02T11:08:08.157Z,7.25
2019-01-02T11:11:36.279Z,7.54
2019-01-02T11:14:45.567Z,7.56
2019-01-02T11:17:54.927Z,7.36
2019-01-02T11:21:04.323Z,7.72
2019-01-02T11:24:13.682Z,7.53
2019-01-02T11:27:22.576Z,7.44
2019-01-02T11:30:30.556Z,7.73
2019-01-02T11:33:38.554Z,7.77
2019-01-02T11:36:47.961Z,7.84
2019-01-02T11:39:57.309Z,7.92
2019-01-02T11:43:05.280Z,7.64
2019-01-02T11:45:53.926Z,7.75
2019-01-02T11:48:23.168Z,7.85
2019-01-02T11:51:04.524Z,8.07
2019-01-02T11:53:46.129Z,7.69
2019-01-02T11:56:15.366Z,7.85
2019-01-02T11:59:03.960Z,7.78
2019-01-02T12:01:33.297Z,8.21
2019-01-02T12:04:21.856Z,7.89
2019-01-02T12:07:10.456Z,7.69
2019-01-02T12:09:39.694Z,7.79
2019-01-02T12:12:28.295Z,7.49
2019-01-02T12:14:57.555Z,7.66
2019-01-02T12:17:46.125Z,7.87
2019-01-02T12:20:34.712Z,8.27
2019-01-02T12:23:03.965Z,8.18
2019-01-02T12:25:52.565Z,8.16
2019-01-02T12:28:21.804Z,8.11
2019-01-02T12:31:10.391Z,8.00
2019-01-02T12:36:52.700Z,7.98
2019-01-02T12:39:41.352Z,7.77
2019-01-02T12:42:29.942Z,7.99
2019-01-02T12:45:18.552Z,8.11
2019-01-02T12:48:07.155Z,8.35
2019-01-02T12:50:48.212Z,8.25
2019-01-02T12:53:29.954Z,8.00
2019-01-02T12:56:11.458Z,8.02
2019-01-02T12:58:40.707Z,7.82
2019-01-02T13:01:49.993Z,7.74
2019-01-02T13:04:57.979Z,8.27
2019-01-02T13:08:05.917Z,8.43
2019-01-02T13:11:13.891Z,7.99
2019-01-02T13:14:23.247Z,8.12
2019-01-02T13:17:32.532Z,8.08
2019-01-02T13:20:43.819Z,8.10
2019-01-02T13:27:37.642Z,8.25
2019-01-02T13:30:48.147Z,7.95
2019-01-02T13:33:56.100Z,7.95
2019-01-02T13:37:05.434Z,8.09
2019-01-02T13:40:13.410Z,8.03
2019-01-02T13:43:21.371Z,8.20
2019-01-02T13:46:30.679Z,7.82
2019-01-02T13:49:38.616Z,8.71
2019-01-02T13:52:20.077Z,8.44
2019-01-02T13:54:49.315Z,7.81
2019-01-02T13:57:18.624Z,7.76
2019-01-02T14:00:27.942Z,7.83
2019-01-02T14:02:57.186Z,7.98
2019-01-02T14:05:26.428Z,7.99
2019-01-02T14:08:15.014Z,7.73
2019-01-02T14:13:51.825Z,7.66
2019-01-02T14:16:40.413Z,7.98
2019-01-02T14:19:09.679Z,8.03
2019-01-02T14:21:58.277Z,7.81
2019-01-02T14:24:27.515Z,8.00
2019-01-02T14:27:16.099Z,7.96
2019-01-02T14:30:25.458Z,7.65
2019-01-02T14:33:14.040Z,7.85
2019-01-02T14:36:21.320Z,7.98
2019-01-02T14:38:58.510Z,8.23
2019-01-02T14:41:27.762Z,9.71
2019-01-02T14:47:10.521Z,8.35
2019-01-02T14:52:52.835Z,8.34
2019-01-02T14:55:41.429Z,8.58
2019-01-02T14:58:10.651Z,8.35
2019-01-02T15:00:59.241Z,8.29
2019-01-02T15:03:47.817Z,8.42
2019-01-02T15:06:17.083Z,8.44
2019-01-02T15:11:34.539Z,8.36
2019-01-02T15:15:00.024Z,8.29
2019-01-02T15:17:48.641Z,8.30
2019-01-02T15:20:37.263Z,8.36
2019-01-02T15:23:25.843Z,8.41
2019-01-02T15:25:55.084Z,8.46
2019-01-02T15:28:43.679Z,8.16
2019-01-02T15:31:12.924Z,8.14
2019-01-02T15:33:42.154Z,8.10
2019-01-02T15:36:30.749Z,8.07
2019-01-02T15:38:59.962Z,8.05
2019-01-02T15:41:29.199Z,7.93
2019-01-02T15:44:35.595Z,7.93
2019-01-02T15:47:08.519Z,8.01
2019-01-02T15:50:17.713Z,7.98
2019-01-02T15:52:58.951Z,8.00
2019-01-02T16:02:35.787Z,7.78
2019-01-02T16:05:45.067Z,7.70
2019-01-02T16:08:33.726Z,7.69
2019-01-02T16:11:22.310Z,7.70
2019-01-02T16:13:51.549Z,7.53
2019-01-02T16:16:20.813Z,7.58
2019-01-02T16:18:50.059Z,7.58
2019-01-02T16:21:38.628Z,7.51
2019-01-02T16:24:07.863Z,7.51
2019-01-02T16:26:56.465Z,7.36
2019-01-02T16:29:45.042Z,7.54
2019-01-02T16:32:14.295Z,7.48
2019-01-02T16:35:02.897Z,7.45
2019-01-02T16:37:32.127Z,7.42
2019-01-02T16:40:20.739Z,7.47
2019-01-02T16:43:09.347Z,7.48
2019-01-02T16:45:58.244Z,7.42
2019-01-02T16:48:27.769Z,7.44
2019-01-02T16:51:08.938Z,7.36
2019-01-02T16:53:50.401Z,7.36
2019-01-02T16:56:32.202Z,7.37
2019-01-02T16:59:15.163Z,7.39
2019-01-02T17:01:44.801Z,7.29
2019-01-02T17:04:33.759Z,7.27
2019-01-02T17:07:22.598Z,7.23
2019-01-02T17:13:24.732Z,7.10
2019-01-02T17:16:13.597Z,7.03
2019-01-02T17:19:02.175Z,6.96
2019-01-02T17:21:31.441Z,6.99
2019-01-02T17:24:20.005Z,7.04
2019-01-02T17:27:08.672Z,7.09
2019-01-02T17:29:57.247Z,7.03
2019-01-02T17:32:26.521Z,6.93
2019-01-02T17:34:55.793Z,6.69
2019-01-02T17:37:44.378Z,6.69
2019-01-02T17:40:32.939Z,6.91
2019-01-02T17:43:02.196Z,7.00
2019-01-02T17:45:50.771Z,7.13
2019-01-02T17:48:20.015Z,7.00
2019-01-02T17:50:49.249Z,6.82
2019-01-02T17:56:51.488Z,6.71
2019-01-02T17:59:20.739Z,6.76
2019-01-02T18:02:09.301Z,6.96
2019-01-02T18:04:58.150Z,6.98
2019-01-02T18:07:46.742Z,6.83
2019-01-02T18:10:35.334Z,6.89
2019-01-02T18:13:23.908Z,6.99
2019-01-02T18:16:12.522Z,6.89
2019-01-02T18:18:41.825Z,6.92
2019-01-02T18:21:11.064Z,6.95
2019-01-02T18:23:59.644Z,6.78
2019-01-02T18:26:28.879Z,6.70
2019-01-02T18:28:58.111Z,6.95
2019-01-02T18:31:46.711Z,6.92
2019-01-02T18:34:16.012Z,6.89
2019-01-02T18:41:08.179Z,6.88
2019-01-02T18:43:37.419Z,6.81
2019-01-02T18:46:26.028Z,6.70
2019-01-02T18:48:55.277Z,6.76
2019-01-02T18:51:36.530Z,6.77
2019-01-02T18:54:05.782Z,6.74
2019-01-02T18:56:35.035Z,6.85
2019-01-02T18:59:23.616Z,6.59
2019-01-02T19:02:12.227Z,6.49
2019-01-02T19:04:41.460Z,6.55
2019-01-02T19:07:30.058Z,6.70
2019-01-02T19:09:59.302Z,6.68
2019-01-02T19:15:59.973Z,6.45
2019-01-02T19:18:48.580Z,6.41
2019-01-02T19:21:17.809Z,6.44
2019-01-02T19:24:06.415Z,6.40
2019-01-02T19:26:35.657Z,6.67
2019-01-02T19:29:24.276Z,6.51
2019-01-02T19:32:12.856Z,6.30
2019-01-02T19:34:42.100Z,6.50
2019-01-02T19:37:30.696Z,6.58
2019-01-02T19:39:59.938Z,6.55
2019-01-02T19:42:48.516Z,6.50
2019-01-02T19:45:17.771Z,6.50
2019-01-02T19:48:06.341Z,6.46
2019-01-02T19:50:54.915Z,6.41
2019-01-02T19:53:36.143Z,6.46
2019-01-02T19:56:05.381Z,6.49
2019-01-02T19:58:55.150Z,6.53
2019-01-02T20:02:03.389Z,6.44
2019-01-02T20:04:32.661Z,6.44
2019-01-02T20:07:21.229Z,6.47
2019-01-02T20:10:09.828Z,6.48
2019-01-02T20:12:58.402Z,6.41
2019-01-02T20:15:46.983Z,6.41
2019-01-02T20:18:35.551Z,6.41
2019-01-02T20:21:04.893Z,6.43
2019-01-02T20:23:34.157Z,6.50
2019-01-02T20:26:22.798Z,6.55
2019-01-02T20:28:52.035Z,6.38
2019-01-02T20:31:40.666Z,6.39
2019-01-02T20:34:29.261Z,6.44
2019-01-02T20:36:58.493Z,6.48
2019-01-02T20:39:47.116Z,6.46
2019-01-02T20:42:35.712Z,6.47
2019-01-02T20:45:44.979Z,6.53
2019-01-02T20:48:14.206Z,6.55
2019-01-02T20:54:08.315Z,6.47
2019-01-02T20:56:49.527Z,6.47
2019-01-02T20:59:31.085Z,6.37
2019-01-02T21:02:12.594Z,6.55
2019-01-02T21:04:54.212Z,6.55
2019-01-02T21:07:23.468Z,6.54
2019-01-02T21:10:12.021Z,6.22
2019-01-02T21:13:00.609Z,6.34
2019-01-02T21:15:29.853Z,6.04
2019-01-02T21:18:18.458Z,5.78
2019-01-02T21:21:07.026Z,5.78
2019-01-02T21:23:55.668Z,5.80
2019-01-02T21:26:44.253Z,5.60
2019-01-02T21:29:13.492Z,5.41
2019-01-02T21:32:02.097Z,5.35
2019-01-02T21:34:31.336Z,5.25
2019-01-02T21:37:19.931Z,5.15
2019-01-02T21:39:49.203Z,5.18
2019-01-02T21:42:37.793Z,5.12
2019-01-02T21:45:26.431Z,5.18
2019-01-02T21:47:55.675Z,4.96
2019-01-02T21:50:44.302Z,5.04
2019-01-02T21:53:13.563Z,4.85
2019-01-02T21:56:02.197Z,4.77
2019-01-02T21:58:50.784Z,4.62
2019-01-02T22:01:20.110Z,4.57
2019-01-02T22:03:49.371Z,4.50
2019-01-02T22:06:37.972Z,4.59
2019-01-02T22:09:07.274Z,4.57
2019-01-02T22:11:36.591Z,4.68
2019-01-02T22:14:25.173Z,4.58
2019-01-02T22:17:13.759Z,4.49
2019-01-02T22:19:43.008Z,4.56
2019-01-02T22:22:31.615Z,4.49
2019-01-02T22:25:00.888Z,4.52
2019-01-02T22:28:10.673Z,4.60
2019-01-02T22:31:05.824Z,4.40
2019-01-02T22:33:54.482Z,4.45
2019-01-02T22:37:04.767Z,4.31
2019-01-02T22:46:54.557Z,4.44
2019-01-02T22:50:04.712Z,4.33
2019-01-02T22:52:46.739Z,4.26
2019-01-02T22:58:14.588Z,4.11
2019-01-02T23:01:03.772Z,4.23
2019-01-02T23:04:12.582Z,4.33
2019-01-02T23:07:45.417Z,4.30
2019-01-02T23:10:34.563Z,4.07
2019-01-02T23:20:27.184Z,4.31
2019-01-02T23:33:04.293Z,4.55
2019-01-02T23:36:34.022Z,4.73
2019-01-02T23:46:13.714Z,4.87
2019-01-02T23:49:43.945Z,4.65
2019-01-02T23:52:50.935Z,4.51
2019-01-02T23:55:34.617Z,4.37
